createdAt,value
2016-11-21T00:00:39.976Z,32.67
2016-11-21T00:01:39.936Z,33.05
2016-11-21T00:02:39.936Z,32.86
2016-11-21T00:03:40.258Z,33.15
2016-11-21T00:04:39.951Z,33.05
2016-11-21T00:05:39.957Z,32.86
2016-11-21T00:06:40.575Z,32.76
2016-11-21T00:07:40.281Z,32.86
2016-11-21T00:08:39.974Z,33.05
2016-11-21T00:09:40.292Z,33.05
2016-11-21T00:10:40.300Z,32.95
2016-11-21T00:11:40.357Z,32.95
2016-11-21T00:12:39.998Z,33.05
2016-11-21T00:13:40.025Z,32.95
2016-11-21T00:14:40.009Z,33.25
2016-11-21T00:15:40.328Z,33.25
2016-11-21T00:16:40.337Z,32.95
2016-11-21T00:17:40.032Z,32.95
2016-11-21T00:18:40.036Z,32.76
2016-11-21T00:19:40.992Z,32.95
2016-11-21T00:20:40.052Z,32.95
2016-11-21T00:21:40.053Z,33.05
2016-11-21T00:22:40.379Z,32.86
2016-11-21T00:23:40.432Z,33.05
2016-11-21T00:24:40.073Z,32.95
2016-11-21T00:25:40.390Z,32.86
2016-11-21T00:26:40.397Z,33.25
2016-11-21T00:27:40.488Z,33.25
2016-11-21T00:28:40.095Z,33.25
2016-11-21T00:29:40.414Z,33.34
2016-11-21T00:30:41.280Z,32.95
2016-11-21T00:31:40.164Z,33.05
2016-11-21T00:32:40.120Z,33.25
2016-11-21T00:33:40.440Z,33.05
2016-11-21T00:34:40.445Z,33.25
2016-11-21T00:35:40.501Z,32.95
2016-11-21T00:36:40.192Z,33.25
2016-11-21T00:37:40.518Z,33.15
2016-11-21T00:38:40.770Z,33.15
2016-11-21T00:39:40.163Z,33.25
2016-11-21T00:40:40.528Z,33.34
2016-11-21T00:41:40.990Z,32.95
2016-11-21T00:42:40.508Z,33.05
2016-11-21T00:43:40.504Z,33.05
2016-11-21T00:44:40.243Z,32.86
2016-11-21T00:45:40.522Z,32.86
2016-11-21T00:46:40.568Z,33.15
2016-11-21T00:47:40.527Z,33.15
2016-11-21T00:48:40.579Z,32.95
2016-11-21T00:49:40.224Z,33.15
2016-11-21T00:50:40.231Z,33.34
2016-11-21T00:51:40.237Z,33.25
2016-11-21T00:52:40.704Z,33.44
2016-11-21T00:53:40.298Z,33.34
2016-11-21T00:54:40.617Z,33.15
2016-11-21T00:55:40.574Z,33.15
2016-11-21T00:56:40.586Z,32.86
2016-11-21T00:57:40.586Z,32.95
2016-11-21T00:58:40.594Z,33.25
2016-11-21T00:59:40.604Z,32.76
2016-11-21T01:00:40.655Z,33.15
2016-11-21T01:01:40.609Z,33.25
2016-11-21T01:02:40.303Z,33.05
2016-11-21T01:03:40.624Z,33.25
2016-11-21T01:04:40.367Z,33.25
2016-11-21T01:05:40.326Z,33.05
2016-11-21T01:06:40.644Z,33.05
2016-11-21T01:07:40.384Z,33.05
2016-11-21T01:08:40.655Z,33.05
2016-11-21T01:09:40.397Z,33.05
2016-11-21T01:10:40.665Z,33.34
2016-11-21T01:11:40.673Z,33.05
2016-11-21T01:12:40.679Z,32.95
2016-11-21T01:13:40.373Z,33.05
2016-11-21T01:14:40.690Z,33.25
2016-11-21T01:15:40.382Z,33.05
2016-11-21T01:16:41.803Z,33.34
2016-11-21T01:17:40.710Z,33.25
2016-11-21T01:18:40.713Z,33.34
2016-11-21T01:19:40.462Z,33.63
2016-11-21T01:20:40.725Z,33.15
2016-11-21T01:21:40.733Z,33.25
2016-11-21T01:22:40.736Z,33.15
2016-11-21T01:23:40.792Z,33.44
2016-11-21T01:24:40.757Z,33.53
2016-11-21T01:25:40.758Z,33.53
2016-11-21T01:26:40.910Z,33.53
2016-11-21T01:27:41.571Z,33.44
2016-11-21T01:28:40.475Z,33.34
2016-11-21T01:29:40.832Z,33.44
2016-11-21T01:30:40.788Z,32.95
2016-11-21T01:31:40.806Z,33.15
2016-11-21T01:32:40.850Z,33.15
2016-11-21T01:33:40.858Z,33.15
2016-11-21T01:34:40.811Z,33.73
2016-11-21T01:35:40.870Z,33.15
2016-11-21T01:36:40.516Z,32.95
2016-11-21T01:37:40.833Z,33.05
2016-11-21T01:38:41.538Z,33.15
2016-11-21T01:39:40.895Z,33.25
2016-11-21T01:40:40.850Z,33.63
2016-11-21T01:41:40.870Z,33.05
2016-11-21T01:42:40.552Z,33.15
2016-11-21T01:43:40.870Z,33.15
2016-11-21T01:44:40.561Z,33.34
2016-11-21T01:45:40.882Z,32.95
2016-11-21T01:46:40.886Z,33.15
2016-11-21T01:47:40.579Z,33.15
2016-11-21T01:48:40.898Z,33.15
2016-11-21T01:49:41.258Z,32.95
2016-11-21T01:50:40.915Z,33.44
2016-11-21T01:51:40.916Z,33.44
2016-11-21T01:52:40.928Z,33.44
2016-11-21T01:53:40.930Z,33.44
2016-11-21T01:54:40.936Z,33.44
2016-11-21T01:55:40.943Z,33.44
2016-11-21T01:56:40.951Z,33.34
2016-11-21T01:57:41.006Z,33.53
2016-11-21T01:58:40.961Z,33.15
2016-11-21T01:59:41.068Z,33.44
2016-11-21T02:00:41.610Z,33.34
2016-11-21T02:01:40.668Z,33.15
2016-11-21T02:02:40.673Z,33.44
2016-11-21T02:03:40.991Z,33.44
2016-11-21T02:04:40.997Z,33.44
2016-11-21T02:05:40.692Z,33.44
2016-11-21T02:06:41.015Z,33.15
2016-11-21T02:07:41.117Z,33.53
2016-11-21T02:08:41.023Z,33.34
2016-11-21T02:09:41.136Z,33.25
2016-11-21T02:10:40.770Z,33.44
2016-11-21T02:11:41.442Z,33.34
2016-11-21T02:12:41.048Z,33.34
2016-11-21T02:13:40.741Z,33.15
2016-11-21T02:14:40.748Z,33.44
2016-11-21T02:15:41.602Z,33.15
2016-11-21T02:16:41.086Z,33.34
2016-11-21T02:17:40.764Z,33.44
2016-11-21T02:18:40.823Z,33.53
2016-11-21T02:19:40.777Z,33.53
2016-11-21T02:20:41.146Z,33.34
2016-11-21T02:21:41.152Z,33.25
2016-11-21T02:22:40.797Z,33.34
2016-11-21T02:23:41.115Z,33.25
2016-11-21T02:24:41.120Z,33.15
2016-11-21T02:25:40.814Z,33.63
2016-11-21T02:26:41.490Z,33.63
2016-11-21T02:27:41.141Z,33.73
2016-11-21T02:28:41.147Z,33.73
2016-11-21T02:29:41.154Z,33.44
2016-11-21T02:30:41.158Z,33.82
2016-11-21T02:31:40.848Z,33.82
2016-11-21T02:32:40.858Z,33.82
2016-11-21T02:33:41.178Z,33.63
2016-11-21T02:34:41.184Z,33.44
2016-11-21T02:35:41.977Z,33.73
2016-11-21T02:36:41.244Z,33.63
2016-11-21T02:37:41.340Z,33.82
2016-11-21T02:38:41.211Z,33.73
2016-11-21T02:39:40.951Z,33.53
2016-11-21T02:40:41.271Z,33.73
2016-11-21T02:41:41.229Z,33.82
2016-11-21T02:42:40.922Z,33.73
2016-11-21T02:43:41.237Z,33.53
2016-11-21T02:45:41.047Z,33.82
2016-11-21T02:46:42.403Z,33.82
2016-11-21T02:47:40.948Z,33.63
2016-11-21T02:48:41.275Z,33.73
2016-11-21T02:49:40.979Z,33.53
2016-11-21T02:50:41.281Z,33.63
2016-11-21T02:51:40.976Z,33.53
2016-11-21T02:52:41.292Z,33.73
2016-11-21T02:53:40.986Z,33.82
2016-11-21T02:54:41.306Z,33.82
2016-11-21T02:55:41.317Z,33.73
2016-11-21T02:56:41.367Z,33.82
2016-11-21T02:57:42.124Z,33.73
2016-11-21T02:58:41.019Z,33.82
2016-11-21T02:59:41.023Z,33.92
2016-11-21T03:00:41.081Z,33.92
2016-11-21T03:01:42.251Z,33.53
2016-11-21T03:02:41.405Z,33.73
2016-11-21T03:03:41.412Z,33.82
2016-11-21T03:04:41.416Z,33.82
2016-11-21T03:05:41.373Z,33.63
2016-11-21T03:06:41.379Z,34.01
2016-11-21T03:07:41.074Z,33.44
2016-11-21T03:08:41.441Z,33.92
2016-11-21T03:09:41.400Z,33.63
2016-11-21T03:10:41.458Z,33.63
2016-11-21T03:11:41.411Z,33.53
2016-11-21T03:12:41.765Z,33.82
2016-11-21T03:13:41.110Z,33.82
2016-11-21T03:14:41.165Z,33.63
2016-11-21T03:15:41.120Z,33.73
2016-11-21T03:16:41.128Z,33.34
2016-11-21T03:17:41.499Z,33.82
2016-11-21T03:18:41.452Z,33.73
2016-11-21T03:19:41.457Z,33.53
2016-11-21T03:20:41.203Z,34.01
2016-11-21T03:21:42.262Z,33.63
2016-11-21T03:22:41.527Z,33.73
2016-11-21T03:23:41.482Z,33.73
2016-11-21T03:24:41.176Z,33.92
2016-11-21T03:25:41.501Z,33.92
2016-11-21T03:26:41.190Z,33.92
2016-11-21T03:27:41.247Z,33.82
2016-11-21T03:28:41.513Z,33.73
2016-11-21T03:29:41.207Z,33.82
2016-11-21T03:30:41.530Z,33.53
2016-11-21T03:31:41.533Z,33.82
2016-11-21T03:32:42.242Z,33.63
2016-11-21T03:33:41.230Z,33.82
2016-11-21T03:34:41.602Z,33.92
2016-11-21T03:35:41.244Z,33.53
2016-11-21T03:36:41.566Z,33.63
2016-11-21T03:37:41.568Z,33.82
2016-11-21T03:38:41.579Z,33.92
2016-11-21T03:39:41.580Z,33.82
2016-11-21T03:40:41.275Z,33.63
2016-11-21T03:41:41.597Z,33.82
2016-11-21T03:42:41.287Z,33.53
2016-11-21T03:43:41.893Z,33.73
2016-11-21T03:44:41.298Z,33.25
2016-11-21T03:45:41.669Z,33.63
2016-11-21T03:46:41.314Z,33.82
2016-11-21T03:47:42.286Z,33.44
2016-11-21T03:48:41.687Z,33.82
2016-11-21T03:49:41.331Z,33.82
2016-11-21T03:50:41.654Z,33.44
2016-11-21T03:51:41.346Z,33.63
2016-11-21T03:52:41.661Z,33.63
2016-11-21T03:53:41.667Z,33.82
2016-11-21T03:54:41.366Z,33.82
2016-11-21T03:55:41.730Z,33.92
2016-11-21T03:56:41.687Z,33.82
2016-11-21T03:57:41.746Z,33.92
2016-11-21T03:58:41.919Z,33.92
2016-11-21T03:59:41.703Z,33.82
2016-11-21T04:00:41.402Z,33.82
2016-11-21T04:01:41.720Z,33.82
2016-11-21T04:02:41.776Z,33.73
2016-11-21T04:03:41.728Z,33.63
2016-11-21T04:04:41.786Z,33.73
2016-11-21T04:05:41.792Z,33.73
2016-11-21T04:06:41.434Z,33.73
2016-11-21T04:07:42.659Z,33.73
2016-11-21T04:08:41.758Z,33.92
2016-11-21T04:09:42.116Z,33.63
2016-11-21T04:10:41.509Z,33.73
2016-11-21T04:11:41.464Z,33.82
2016-11-21T04:12:41.576Z,33.82
2016-11-21T04:13:41.842Z,33.73
2016-11-21T04:14:56.362Z,33.63
2016-11-21T04:15:41.489Z,33.73
2016-11-21T04:16:41.909Z,33.73
2016-11-21T04:17:41.815Z,33.73
2016-11-21T04:18:41.509Z,33.63
2016-11-21T04:19:41.513Z,33.73
2016-11-21T04:20:41.886Z,33.63
2016-11-21T04:21:41.840Z,33.73
2016-11-21T04:22:41.847Z,33.63
2016-11-21T04:23:41.902Z,33.73
2016-11-21T04:24:41.544Z,33.73
2016-11-21T04:25:41.918Z,33.63
2016-11-21T04:26:41.867Z,33.73
2016-11-21T04:27:41.876Z,33.63
2016-11-21T04:28:41.881Z,33.53
2016-11-21T04:29:42.890Z,33.73
2016-11-21T04:30:41.582Z,33.73
2016-11-21T04:31:41.900Z,33.53
2016-11-21T04:32:41.908Z,33.53
2016-11-21T04:33:43.079Z,33.63
2016-11-21T04:34:41.607Z,33.63
2016-11-21T04:35:41.613Z,33.53
2016-11-21T04:36:41.988Z,33.73
2016-11-21T04:37:41.623Z,33.44
2016-11-21T04:38:41.945Z,33.63
2016-11-21T04:39:41.948Z,33.63
2016-11-21T04:40:41.644Z,33.73
2016-11-21T04:41:41.963Z,33.53
2016-11-21T04:42:41.972Z,34.01
2016-11-21T04:43:41.977Z,33.53
2016-11-21T04:44:42.831Z,33.92
2016-11-21T04:45:41.676Z,33.53
2016-11-21T04:46:41.731Z,34.01
2016-11-21T04:47:41.684Z,33.92
2016-11-21T04:48:42.006Z,34.01
2016-11-21T04:49:42.010Z,34.21
2016-11-21T04:50:42.068Z,34.01
2016-11-21T04:51:42.022Z,34.01
2016-11-21T04:52:42.029Z,34.21
2016-11-21T04:53:43.062Z,34.11
2016-11-21T04:54:42.041Z,34.01
2016-11-21T04:55:42.484Z,34.21
2016-11-21T04:56:42.054Z,34.21
2016-11-21T04:57:42.059Z,34.3
2016-11-21T04:58:41.804Z,34.01
2016-11-21T04:59:41.759Z,34.21
2016-11-21T05:00:42.078Z,34.01
2016-11-21T05:01:41.772Z,33.92
2016-11-21T05:02:41.780Z,33.44
2016-11-21T05:03:42.098Z,34.21
2016-11-21T05:04:41.791Z,34.01
2016-11-21T05:05:41.805Z,34.11
2016-11-21T05:06:41.852Z,34.11
2016-11-21T05:07:42.122Z,34.01
2016-11-21T05:08:41.863Z,34.21
2016-11-21T05:09:41.820Z,34.01
2016-11-21T05:10:42.139Z,34.21
2016-11-21T05:11:41.833Z,34.01
2016-11-21T05:12:41.837Z,34.11
2016-11-21T05:13:42.160Z,34.21
2016-11-21T05:14:42.168Z,34.3
2016-11-21T05:15:43.167Z,33.92
2016-11-21T05:16:41.864Z,33.53
2016-11-21T05:17:42.018Z,33.53
2016-11-21T05:18:41.876Z,33.53
2016-11-21T05:19:41.881Z,33.63
2016-11-21T05:20:42.299Z,34.01
2016-11-21T05:21:41.894Z,33.53
2016-11-21T05:22:41.907Z,34.21
2016-11-21T05:23:42.221Z,33.92
2016-11-21T05:24:42.222Z,33.63
2016-11-21T05:25:41.970Z,33.53
2016-11-21T05:26:42.237Z,33.82
2016-11-21T05:27:42.241Z,33.53
2016-11-21T05:28:42.250Z,33.63
2016-11-21T05:29:42.253Z,33.53
2016-11-21T05:30:43.160Z,34.01
2016-11-21T05:31:42.264Z,33.53
2016-11-21T05:32:42.277Z,33.44
2016-11-21T05:33:42.279Z,33.44
2016-11-21T05:34:41.974Z,33.53
2016-11-21T05:35:41.981Z,33.53
2016-11-21T05:36:41.983Z,33.53
2016-11-21T05:37:42.305Z,33.44
2016-11-21T05:38:42.309Z,33.53
2016-11-21T05:39:42.005Z,33.82
2016-11-21T05:40:42.320Z,34.01
2016-11-21T05:41:42.964Z,34.11
2016-11-21T05:42:42.334Z,34.3
2016-11-21T05:43:42.028Z,34.21
2016-11-21T05:44:42.358Z,33.34
2016-11-21T05:45:42.360Z,33.53
2016-11-21T05:46:42.359Z,33.44
2016-11-21T05:47:42.365Z,33.53
2016-11-21T05:48:42.420Z,33.44
2016-11-21T05:49:42.062Z,33.63
2016-11-21T05:50:42.070Z,33.73
2016-11-21T05:51:42.441Z,33.53
2016-11-21T05:52:42.138Z,34.01
2016-11-21T05:53:42.085Z,34.01
2016-11-21T05:54:42.463Z,34.01
2016-11-21T05:55:42.098Z,34.11
2016-11-21T05:56:42.107Z,34.3
2016-11-21T05:57:42.161Z,33.73
2016-11-21T05:58:42.434Z,33.53
2016-11-21T05:59:42.436Z,33.53
2016-11-21T06:00:42.181Z,34.01
2016-11-21T06:01:43.448Z,33.53
2016-11-21T06:02:42.243Z,34.3
2016-11-21T06:03:42.464Z,34.01
2016-11-21T06:04:42.157Z,34.01
2016-11-21T06:05:43.624Z,34.01
2016-11-21T06:06:42.168Z,34.01
2016-11-21T06:07:42.488Z,34.01
2016-11-21T06:08:42.180Z,34.01
2016-11-21T06:09:42.501Z,34.11
2016-11-21T06:10:42.504Z,34.01
2016-11-21T06:11:42.516Z,33.63
2016-11-21T06:12:42.527Z,33.63
2016-11-21T06:13:42.581Z,33.92
2016-11-21T06:14:42.529Z,33.63
2016-11-21T06:15:42.225Z,34.01
2016-11-21T06:16:43.182Z,33.82
2016-11-21T06:17:42.547Z,33.63
2016-11-21T06:18:42.241Z,33.34
2016-11-21T06:19:42.562Z,34.01
2016-11-21T06:20:42.618Z,34.01
2016-11-21T06:21:42.262Z,34.11
2016-11-21T06:22:42.264Z,34.11
2016-11-21T06:23:42.636Z,34.01
2016-11-21T06:24:42.592Z,34.01
2016-11-21T06:25:42.597Z,34.01
2016-11-21T06:26:42.289Z,34.11
2016-11-21T06:27:43.610Z,33.73
2016-11-21T06:28:42.616Z,33.63
2016-11-21T06:29:42.672Z,33.63
2016-11-21T06:30:42.627Z,34.01
2016-11-21T06:31:42.321Z,33.92
2016-11-21T06:32:42.638Z,34.11
2016-11-21T06:33:42.335Z,34.01
2016-11-21T06:34:42.652Z,34.01
2016-11-21T06:35:42.657Z,34.11
2016-11-21T06:36:42.663Z,34.01
2016-11-21T06:37:42.672Z,34.01
2016-11-21T06:38:43.165Z,33.73
2016-11-21T06:39:42.368Z,34.11
2016-11-21T06:40:42.374Z,33.63
2016-11-21T06:41:42.697Z,33.63
2016-11-21T06:42:42.389Z,33.73
2016-11-21T06:43:42.707Z,33.63
2016-11-21T06:44:42.451Z,33.63
2016-11-21T06:45:42.409Z,34.01
2016-11-21T06:46:42.777Z,33.63
2016-11-21T06:47:42.782Z,34.01
2016-11-21T06:48:42.427Z,34.11
2016-11-21T06:49:43.495Z,33.92
2016-11-21T06:50:42.800Z,34.01
2016-11-21T06:51:42.759Z,34.01
2016-11-21T06:52:42.449Z,33.63
2016-11-21T06:53:42.506Z,33.73
2016-11-21T06:54:42.775Z,33.82
2016-11-21T06:55:42.469Z,33.92
2016-11-21T06:56:42.474Z,33.53
2016-11-21T06:57:42.792Z,33.82
2016-11-21T06:58:42.536Z,33.73
2016-11-21T06:59:42.490Z,33.92
2016-11-21T07:00:43.265Z,33.92
2016-11-21T07:01:42.507Z,34.01
2016-11-21T07:02:42.513Z,33.82
2016-11-21T07:03:42.569Z,33.92
2016-11-21T07:04:42.523Z,33.82
2016-11-21T07:05:42.842Z,33.92
2016-11-21T07:06:42.848Z,33.92
2016-11-21T07:07:42.540Z,33.82
2016-11-21T07:08:42.548Z,33.82
2016-11-21T07:09:42.551Z,33.82
2016-11-21T07:10:42.871Z,33.92
2016-11-21T07:11:43.330Z,33.92
2016-11-21T07:12:42.885Z,34.21
2016-11-21T07:13:42.890Z,34.11
2016-11-21T07:14:42.899Z,34.21
2016-11-21T07:15:42.904Z,34.21
2016-11-21T07:16:42.911Z,34.21
2016-11-21T07:17:42.965Z,33.73
2016-11-21T07:18:42.923Z,33.73
2016-11-21T07:19:42.616Z,34.21
2016-11-21T07:20:42.933Z,34.11
2016-11-21T07:21:42.627Z,34.21
2016-11-21T07:22:42.681Z,33.63
2016-11-21T07:23:42.953Z,33.82
2016-11-21T07:24:42.749Z,33.92
2016-11-21T07:25:43.016Z,33.92
2016-11-21T07:26:42.656Z,33.82
2016-11-21T07:27:43.024Z,33.73
2016-11-21T07:28:42.983Z,33.82
2016-11-21T07:29:42.990Z,33.92
2016-11-21T07:30:42.684Z,33.63
2016-11-21T07:31:43.048Z,33.34
2016-11-21T07:32:43.006Z,33.26
2016-11-21T07:33:42.901Z,32.59
2016-11-21T07:34:42.754Z,32.31
2016-11-21T07:35:42.712Z,32.03
2016-11-21T07:36:43.029Z,31.63
2016-11-21T07:37:43.039Z,31.27
2016-11-21T07:38:42.732Z,31.09
2016-11-21T07:39:42.736Z,30.98
2016-11-21T07:40:43.055Z,30.61
2016-11-21T07:41:42.797Z,30.32
2016-11-21T07:42:42.755Z,29.94
2016-11-21T07:43:42.858Z,29.94
2016-11-21T07:44:43.078Z,29.66
2016-11-21T07:45:42.820Z,29.46
2016-11-21T07:46:43.879Z,29.09
2016-11-21T07:47:43.152Z,29.28
2016-11-21T07:48:43.037Z,28.99
2016-11-21T07:49:42.805Z,28.8
2016-11-21T07:50:42.802Z,28.62
2016-11-21T07:51:42.860Z,28.43
2016-11-21T07:52:42.816Z,28.04
2016-11-21T07:53:43.134Z,28.04
2016-11-21T07:54:42.827Z,28.33
2016-11-21T07:55:43.147Z,28.14
2016-11-21T07:56:42.852Z,28.05
2016-11-21T07:57:43.995Z,28.15
2016-11-21T07:58:42.905Z,27.86
2016-11-21T07:59:42.858Z,27.47
2016-11-21T08:00:43.180Z,27.47
2016-11-21T08:01:43.182Z,27.76
2016-11-21T08:02:43.239Z,27.47
2016-11-21T08:03:42.884Z,28.05
2016-11-21T08:04:42.940Z,28.05
2016-11-21T08:05:42.896Z,27.57
2016-11-21T08:06:42.952Z,27.47
2016-11-21T08:07:42.958Z,27.67
2016-11-21T08:08:43.465Z,27.57
2016-11-21T08:09:43.313Z,27.19
2016-11-21T08:10:42.925Z,27.68
2016-11-21T08:11:42.932Z,27.96
2016-11-21T08:12:42.989Z,27
2016-11-21T08:13:43.257Z,27.68
2016-11-21T08:14:43.265Z,27.57
2016-11-21T08:15:42.959Z,27.57
2016-11-21T08:16:42.968Z,27.78
2016-11-21T08:17:43.050Z,27.76
2016-11-21T08:18:43.341Z,27.49
2016-11-21T08:19:43.636Z,27.86
2016-11-21T08:20:43.303Z,27.28
2016-11-21T08:21:42.996Z,27.09
2016-11-21T08:22:43.315Z,27.47
2016-11-21T08:23:43.324Z,27.67
2016-11-21T08:24:43.031Z,27.68
2016-11-21T08:25:43.389Z,27.87
2016-11-21T08:26:43.351Z,27.1
2016-11-21T08:27:43.395Z,27.1
2016-11-21T08:28:43.045Z,27.49
2016-11-21T08:29:43.364Z,27.87
2016-11-21T08:30:43.204Z,27.1
2016-11-21T08:31:43.064Z,27.97
2016-11-21T08:32:44.358Z,27.86
2016-11-21T08:33:43.081Z,27.86
2016-11-21T08:34:44.080Z,27.86
2016-11-21T08:35:43.451Z,27.86
2016-11-21T08:36:43.458Z,27.87
2016-11-21T08:37:43.415Z,27.47
2016-11-21T08:38:43.421Z,27.87
2016-11-21T08:39:43.427Z,27.29
2016-11-21T08:40:43.435Z,27.47
2016-11-21T08:41:43.439Z,27.49
2016-11-21T08:42:43.183Z,27.78
2016-11-21T08:43:43.192Z,27.67
2016-11-21T08:44:45.563Z,27.96
2016-11-21T08:45:43.353Z,27.2
2016-11-21T08:46:43.491Z,27.78
2016-11-21T08:47:43.482Z,27.97
2016-11-21T08:48:43.540Z,27.78
2016-11-21T08:49:43.490Z,28.07
2016-11-21T08:50:43.498Z,27.58
2016-11-21T08:51:43.512Z,27.68
2016-11-21T08:52:43.211Z,27.1
2016-11-21T08:53:43.574Z,27.68
2016-11-21T08:54:44.467Z,27.87
2016-11-21T08:55:43.218Z,27.1
2016-11-21T08:56:43.736Z,28.07
2016-11-21T08:57:43.232Z,27.39
2016-11-21T08:58:43.551Z,27.58
2016-11-21T08:59:43.556Z,27.1
2016-11-21T09:00:43.665Z,27.68
2016-11-21T09:01:43.308Z,27.87
2016-11-21T09:02:43.313Z,27.87
2016-11-21T09:03:43.586Z,27.68
2016-11-21T09:04:43.642Z,27.68
2016-11-21T09:05:43.285Z,27.58
2016-11-21T09:06:43.608Z,27.58
2016-11-21T09:07:43.620Z,27.87
2016-11-21T09:08:43.306Z,27.97
2016-11-21T09:09:43.364Z,27.97
2016-11-21T09:10:43.630Z,27.97
2016-11-21T09:11:43.640Z,27
2016-11-21T09:12:43.334Z,27.58
2016-11-21T09:13:43.651Z,27.58
2016-11-21T09:14:43.709Z,27.68
2016-11-21T09:15:43.676Z,27.68
2016-11-21T09:16:43.861Z,27.58
2016-11-21T09:17:43.676Z,27.39
2016-11-21T09:18:43.421Z,27.97
2016-11-21T09:19:43.692Z,27.87
2016-11-21T09:20:44.387Z,27.29
2016-11-21T09:21:43.715Z,27.97
2016-11-21T09:22:43.739Z,27.49
2016-11-21T09:23:43.457Z,27.68
2016-11-21T09:24:43.777Z,27.58
2016-11-21T09:25:43.752Z,28.07
2016-11-21T09:26:43.428Z,27
2016-11-21T09:27:43.746Z,27.97
2016-11-21T09:28:43.802Z,27.68
2016-11-21T09:29:43.447Z,27.68
2016-11-21T09:30:43.503Z,27.39
2016-11-21T09:31:44.226Z,27.39
2016-11-21T09:32:43.780Z,27.78
2016-11-21T09:33:43.525Z,27.87
2016-11-21T09:34:43.531Z,27.68
2016-11-21T09:35:43.798Z,27.87
2016-11-21T09:36:43.496Z,27.58
2016-11-21T09:37:43.501Z,27.49
2016-11-21T09:38:43.821Z,27.49
2016-11-21T09:39:43.874Z,27.87
2016-11-21T09:40:44.771Z,27.87
2016-11-21T09:41:43.841Z,27.29
2016-11-21T09:42:44.043Z,27.97
2016-11-21T09:43:43.903Z,27.87
2016-11-21T09:44:43.910Z,27.78
2016-11-21T09:45:43.865Z,27.68
2016-11-21T09:46:43.589Z,27.6
2016-11-21T09:47:43.618Z,27.89
2016-11-21T09:48:43.886Z,27.78
2016-11-21T09:49:43.581Z,28.26
2016-11-21T09:50:43.936Z,27.31
2016-11-21T09:51:43.907Z,27.89
2016-11-21T09:52:43.963Z,27.7
2016-11-21T09:53:43.707Z,27.4
2016-11-21T09:54:43.926Z,27.31
2016-11-21T09:55:43.933Z,27.5
2016-11-21T09:56:43.629Z,27.89
2016-11-21T09:57:43.995Z,27.78
2016-11-21T09:58:43.963Z,27.97
2016-11-21T09:59:43.647Z,28.07
2016-11-21T10:00:43.968Z,27.89
2016-11-21T10:01:43.973Z,27.29
2016-11-21T10:02:45.094Z,27.97
2016-11-21T10:03:43.985Z,27.97
2016-11-21T10:04:44.084Z,27.68
2016-11-21T10:05:44.005Z,27.98
2016-11-21T10:06:43.693Z,28.08
2016-11-21T10:07:44.013Z,27.29
2016-11-21T10:08:43.708Z,27.31
2016-11-21T10:09:43.714Z,27.29
2016-11-21T10:10:44.137Z,27.89
2016-11-21T10:11:43.730Z,27.68
2016-11-21T10:12:43.785Z,27.68
2016-11-21T10:13:44.053Z,27.87
2016-11-21T10:14:43.749Z,27.11
2016-11-21T10:15:44.068Z,27.21
2016-11-21T10:16:43.776Z,27.7
2016-11-21T10:17:44.868Z,27.87
2016-11-21T10:18:44.093Z,27.97
2016-11-21T10:19:43.831Z,27.98
2016-11-21T10:20:43.790Z,27.6
2016-11-21T10:21:43.794Z,27.7
2016-11-21T10:22:43.803Z,27.6
2016-11-21T10:23:44.120Z,27.98
2016-11-21T10:24:44.129Z,27.31
2016-11-21T10:25:43.873Z,27.98
2016-11-21T10:26:44.242Z,27.5
2016-11-21T10:27:43.836Z,27.89
2016-11-21T10:28:44.993Z,27.7
2016-11-21T10:29:44.163Z,27.7
2016-11-21T10:30:44.219Z,27.6
2016-11-21T10:31:43.860Z,27.7
2016-11-21T10:32:43.918Z,27.6
2016-11-21T10:33:43.876Z,27.5
2016-11-21T10:34:43.886Z,27.6
2016-11-21T10:35:44.202Z,27.21
2016-11-21T10:36:44.251Z,27.79
2016-11-21T10:37:44.215Z,27.7
2016-11-21T10:38:43.910Z,27.98
2016-11-21T10:39:44.466Z,27.5
2016-11-21T10:40:44.235Z,27.98
2016-11-21T10:41:43.933Z,27.5
2016-11-21T10:42:43.936Z,27.79
2016-11-21T10:43:44.308Z,27.31
2016-11-21T10:44:44.313Z,27.98
2016-11-21T10:45:44.272Z,27.98
2016-11-21T10:46:43.964Z,27.98
2016-11-21T10:47:44.286Z,27.89
2016-11-21T10:48:45.101Z,27.5
2016-11-21T10:49:44.349Z,27.89
2016-11-21T10:50:44.308Z,27.79
2016-11-21T10:51:44.051Z,27.79
2016-11-21T10:52:44.319Z,27.89
2016-11-21T10:53:44.325Z,27.21
2016-11-21T10:54:44.404Z,27.5
2016-11-21T10:55:44.338Z,27.5
2016-11-21T10:56:44.081Z,27.5
2016-11-21T10:57:44.353Z,27.21
2016-11-21T10:58:44.408Z,27.89
2016-11-21T10:59:44.052Z,27.89
2016-11-21T11:00:44.057Z,27.5
2016-11-21T11:01:44.380Z,27.79
2016-11-21T11:02:44.393Z,27.5
2016-11-21T11:03:45.293Z,27.5
2016-11-21T11:04:44.180Z,27.89
2016-11-21T11:05:44.409Z,27.89
2016-11-21T11:06:44.155Z,27.5
2016-11-21T11:07:44.422Z,27.31
2016-11-21T11:08:44.435Z,28.18
2016-11-21T11:09:44.433Z,27.79
2016-11-21T11:10:44.491Z,27.7
2016-11-21T11:11:44.448Z,27.89
2016-11-21T11:12:44.192Z,28.08
2016-11-21T11:13:44.149Z,28.08
2016-11-21T11:14:44.854Z,27.6
2016-11-21T11:15:44.474Z,27.89
2016-11-21T11:16:44.482Z,27.79
2016-11-21T11:17:44.175Z,28.08
2016-11-21T11:18:44.498Z,27.98
2016-11-21T11:19:44.551Z,27.79
2016-11-21T11:20:44.510Z,27.89
2016-11-21T11:21:44.513Z,28.08
2016-11-21T11:22:44.521Z,27.5
2016-11-21T11:23:44.214Z,27.5
2016-11-21T11:24:44.272Z,27.81
2016-11-21T11:25:44.381Z,27.98
2016-11-21T11:26:44.548Z,27.89
2016-11-21T11:27:44.246Z,27.98
2016-11-21T11:28:44.612Z,27.4
2016-11-21T11:29:44.621Z,27.98
2016-11-21T11:30:44.579Z,27.98
2016-11-21T11:31:44.584Z,27.89
2016-11-21T11:32:44.327Z,27.5
2016-11-21T11:33:44.597Z,27.79
2016-11-21T11:34:45.295Z,27.5
2016-11-21T11:35:44.614Z,27.5
2016-11-21T11:36:44.554Z,27.98
2016-11-21T11:37:44.316Z,27.21
2016-11-21T11:38:44.318Z,27.89
2016-11-21T11:39:44.325Z,28.08
2016-11-21T11:40:44.647Z,27.79
2016-11-21T11:41:44.338Z,27.6
2016-11-21T11:42:44.660Z,27.5
2016-11-21T11:43:44.352Z,27.31
2016-11-21T11:44:44.676Z,27.6
2016-11-21T11:45:44.367Z,28
2016-11-21T11:46:44.734Z,27.4
2016-11-21T11:47:44.693Z,27.5
2016-11-21T11:48:44.750Z,27.81
2016-11-21T11:49:45.445Z,27.51
2016-11-21T11:50:44.713Z,27.7
2016-11-21T11:51:44.720Z,27.89
2016-11-21T11:52:44.414Z,27.5
2016-11-21T11:53:44.424Z,27.71
2016-11-21T11:54:44.528Z,28.08
2016-11-21T11:55:44.483Z,27.89
2016-11-21T11:56:44.443Z,27.6
2016-11-21T11:57:44.765Z,27.98
2016-11-21T11:58:44.506Z,27.81
2016-11-21T11:59:44.463Z,27.6
2016-11-21T12:00:45.332Z,27.03
2016-11-21T12:01:44.789Z,27.91
2016-11-21T12:02:44.798Z,27.89
2016-11-21T12:03:44.853Z,27.6
2016-11-21T12:04:44.861Z,27.89
2016-11-21T12:05:44.819Z,27.51
2016-11-21T12:06:44.821Z,27.91
2016-11-21T12:07:44.519Z,27.4
2016-11-21T12:08:44.892Z,27.79
2016-11-21T12:09:44.532Z,27.89
2016-11-21T12:10:44.539Z,28.08
2016-11-21T12:11:44.795Z,27.5
2016-11-21T12:12:44.865Z,27.5
2016-11-21T12:13:44.872Z,27.22
2016-11-21T12:14:44.932Z,27.7
2016-11-21T12:15:44.887Z,27.6
2016-11-21T12:16:44.580Z,28.08
2016-11-21T12:17:45.001Z,28.08
2016-11-21T12:18:44.597Z,28.18
2016-11-21T12:19:44.650Z,28.18
2016-11-21T12:20:45.658Z,27.98
2016-11-21T12:21:44.668Z,28.08
2016-11-21T12:22:44.822Z,28.18
2016-11-21T12:23:44.940Z,28.86
2016-11-21T12:24:44.689Z,29.15
2016-11-21T12:25:44.643Z,28.96
2016-11-21T12:26:44.962Z,29.24
2016-11-21T12:27:44.658Z,29.34
2016-11-21T12:28:44.765Z,29.05
2016-11-21T12:29:44.982Z,29.63
2016-11-21T12:30:44.992Z,29.53
2016-11-21T12:31:45.001Z,29.73
2016-11-21T12:32:45.057Z,29.92
2016-11-21T12:33:45.068Z,30.11
2016-11-21T12:34:45.033Z,30.13
2016-11-21T12:35:45.464Z,30.21
2016-11-21T12:36:45.032Z,30.04
2016-11-21T12:37:44.726Z,30.13
2016-11-21T12:38:45.049Z,30.41
2016-11-21T12:39:44.790Z,30.51
2016-11-21T12:40:45.110Z,30.79
2016-11-21T12:41:44.753Z,30.6
2016-11-21T12:42:44.762Z,30.6
2016-11-21T12:43:44.816Z,30.6
2016-11-21T12:45:45.194Z,30.41
2016-11-21T12:46:45.441Z,30.32
2016-11-21T12:47:44.795Z,30.11
2016-11-21T12:48:44.802Z,30.69
2016-11-21T12:49:44.809Z,30.11
2016-11-21T12:50:44.818Z,30.21
2016-11-21T12:51:44.874Z,30.02
2016-11-21T12:52:45.144Z,30.21
2016-11-21T12:53:45.150Z,30.31
2016-11-21T12:54:44.843Z,30.21
2016-11-21T12:55:46.270Z,30.31
2016-11-21T12:56:45.221Z,30.11
2016-11-21T12:57:44.867Z,30.21